Stith, Texas
Current Conditions -  °F | °C
As of 10:58 AM on Tuesday 21 Oct 2014 (Local Time) from KDYS Reporting Station
Clear Clear  
Wind Chill: 75°   Ceiling: Unl
Heat Index: 75°   Visibility: 10mi
Dew Point: 58°   Wind: 2mph
Humidity: 55%   Direction: NA
Pressure: 30.12"   Gusts: NA
Location:  32.3913°N, 100.009°W
Report Text: KDYS 211558Z AUTO VRB02KT 10SM CLR 24/15 A3012 RMK AO2 SLP167 T02410146
Loading
Personal Weather Stations






























Interactive Weather Map
Tropical Storm Tracking
New forecast layout! Learn more

10-Day Weather Forecast

Advertisements
Track Severe Weather on mobile